Time;durP1;ratioP1;P1;durP2;ratioP2;P2;SDS_P1;SDS_P2;PMS_P1;PMS_P2;Temp;Humidity;BMP_temperature;BMP_pressure;BME280_temperature;BME280_humidity;BME280_pressure;Samples;Min_cycle;Max_cycle;Signal;HPM_P1;HPM_P2
2023/08/05 00:00:00;;;;;;;11.93;2.67;;;;;;;;;;5021485;28;20037;-71
2023/08/05 00:02:26;;;;;;;11.32;2.40;;;;;;;;;;5022048;28;20526;-72
2023/08/05 00:04:53;;;;;;;10.25;2.42;;;;;;;;;;5016901;28;20120;-69
2023/08/05 00:07:19;;;;;;;10.65;2.50;;;;;;;;;;5016355;28;20021;-69
2023/08/05 00:09:45;;;;;;;14.98;2.60;;;;;;;;;;5018242;28;20033;-69
2023/08/05 00:12:11;;;;;;;12.77;2.80;;;;;;;;;;5015175;28;20113;-70
2023/08/05 00:14:38;;;;;;;11.65;2.88;;;;;;;;;;5018094;28;20029;-70
2023/08/05 00:17:04;;;;;;;14.35;2.83;;;;;;;;;;5017904;28;20344;-71
2023/08/05 00:19:31;;;;;;;11.95;2.83;;;;;;;;;;5018844;28;20410;-70
2023/08/05 00:21:57;;;;;;;10.88;2.67;;;;;;;;;;5015471;28;20037;-70
2023/08/05 00:24:23;;;;;;;10.63;2.58;;;;;;;;;;5021957;28;20479;-69
2023/08/05 00:26:49;;;;;;;11.43;2.80;;;;;;;;;;5014059;28;20041;-69
2023/08/05 00:29:15;;;;;;;13.45;2.92;;;;;;;;;;5001501;28;20025;-70
2023/08/05 00:31:41;;;;;;;12.00;2.85;;;;;;;;;;5017559;28;20485;-72
2023/08/05 00:34:07;;;;;;;11.35;2.53;;;;;;;;;;5018226;28;20645;-69
2023/08/05 00:36:34;;;;;;;10.15;2.42;;;;;;;;;;5019760;28;20040;-69
2023/08/05 00:39:00;;;;;;;11.80;2.55;;;;;;;;;;5012502;28;20883;-69
2023/08/05 00:41:26;;;;;;;11.85;2.60;;;;;;;;;;5001105;28;20033;-69
2023/08/05 00:43:52;;;;;;;10.63;2.47;;;;;;;;;;5002525;28;20360;-71
2023/08/05 00:46:22;;;;;;;10.77;2.50;;;;;;;;;;5022689;28;20062;-71
2023/08/05 00:48:49;;;;;;;11.07;2.38;;;;;;;;;;5003812;28;20099;-69
2023/08/05 00:51:16;;;;;;;15.15;3.00;;;;;;;;;;5023467;28;20517;-71
2023/08/05 00:53:42;;;;;;;13.73;2.83;;;;;;;;;;5017136;28;20029;-70
2023/08/05 00:56:09;;;;;;;12.48;2.63;;;;;;;;;;5001352;28;20029;-70
2023/08/05 00:58:35;;;;;;;12.20;2.80;;;;;;;;;;5014731;28;20451;-71
2023/08/05 01:01:01;;;;;;;12.60;2.75;;;;;;;;;;5023939;28;20043;-70
2023/08/05 01:03:27;;;;;;;12.13;2.55;;;;;;;;;;5019503;28;20730;-71
2023/08/05 01:05:54;;;;;;;9.80;2.53;;;;;;;;;;5019063;28;20439;-70
2023/08/05 01:08:22;;;;;;;12.18;2.80;;;;;;;;;;4997277;28;20064;-70
2023/08/05 01:10:49;;;;;;;12.23;2.42;;;;;;;;;;5017128;28;20546;-70
2023/08/05 01:13:15;;;;;;;11.80;2.78;;;;;;;;;;5000361;28;20478;-70
2023/08/05 01:15:41;;;;;;;11.90;2.35;;;;;;;;;;5005254;28;20492;-70
2023/08/05 01:18:09;;;;;;;11.48;2.85;;;;;;;;;;5016628;28;20112;-71
2023/08/05 01:20:38;;;;;;;11.35;2.42;;;;;;;;;;5001321;28;20048;-70
2023/08/05 01:23:13;;;;;;;10.75;2.30;;;;;;;;;;5018691;28;20037;-70
2023/08/05 01:25:40;;;;;;;15.13;2.30;;;;;;;;;;5006844;28;20044;-70
2023/08/05 01:28:06;;;;;;;11.40;2.28;;;;;;;;;;5019864;28;20359;-69
2023/08/05 01:30:33;;;;;;;11.95;2.55;;;;;;;;;;5018263;28;20439;-69
2023/08/05 01:33:01;;;;;;;11.95;2.55;;;;;;;;;;5022460;28;20232;-70
2023/08/05 01:35:27;;;;;;;10.05;2.42;;;;;;;;;;5021398;28;20059;-69
2023/08/05 01:37:53;;;;;;;15.25;2.42;;;;;;;;;;5015701;28;20069;-69
2023/08/05 01:40:20;;;;;;;10.10;2.45;;;;;;;;;;5021258;28;20034;-70
2023/08/05 01:42:46;;;;;;;12.13;2.70;;;;;;;;;;4998544;28;20108;-70
2023/08/05 01:45:12;;;;;;;13.93;2.75;;;;;;;;;;5023027;28;20071;-70
2023/08/05 01:47:38;;;;;;;12.32;2.58;;;;;;;;;;5000568;28;20395;-70
2023/08/05 01:50:05;;;;;;;11.65;2.70;;;;;;;;;;5017930;28;20509;-70
2023/08/05 01:52:31;;;;;;;9.15;2.17;;;;;;;;;;5018163;28;20020;-69
2023/08/05 01:54:58;;;;;;;14.50;2.60;;;;;;;;;;5017972;28;20431;-69
2023/08/05 01:57:24;;;;;;;12.65;2.70;;;;;;;;;;5001288;28;20037;-69
2023/08/05 01:59:50;;;;;;;10.48;2.13;;;;;;;;;;5022222;28;20036;-69
2023/08/05 02:02:16;;;;;;;11.85;2.55;;;;;;;;;;5002765;28;20026;-69
2023/08/05 02:04:42;;;;;;;8.82;2.00;;;;;;;;;;5000617;28;20526;-69
2023/08/05 02:07:08;;;;;;;12.95;2.40;;;;;;;;;;5002123;28;20770;-69
2023/08/05 02:09:34;;;;;;;10.18;2.00;;;;;;;;;;5020533;28;20029;-71
2023/08/05 02:12:01;;;;;;;11.60;2.47;;;;;;;;;;5001788;28;20554;-71
2023/08/05 02:14:27;;;;;;;9.55;2.10;;;;;;;;;;5016494;28;20021;-70
2023/08/05 02:16:53;;;;;;;11.13;2.28;;;;;;;;;;5016780;28;20052;-70
2023/08/05 02:19:19;;;;;;;10.10;2.00;;;;;;;;;;5019857;28;20163;-70
2023/08/05 02:21:45;;;;;;;12.00;2.40;;;;;;;;;;5019244;28;20487;-71
2023/08/05 02:24:11;;;;;;;12.18;2.30;;;;;;;;;;5004439;28;20037;-70
2023/08/05 02:26:38;;;;;;;10.73;2.40;;;;;;;;;;5018190;28;20566;-71
2023/08/05 02:29:04;;;;;;;9.68;2.00;;;;;;;;;;5001959;28;20111;-70
2023/08/05 02:31:30;;;;;;;11.55;2.20;;;;;;;;;;5018375;28;20029;-70
2023/08/05 02:33:56;;;;;;;8.23;1.98;;;;;;;;;;5022178;28;20053;-70
2023/08/05 02:36:23;;;;;;;9.13;2.33;;;;;;;;;;5018177;28;20034;-70
2023/08/05 02:38:49;;;;;;;9.10;2.17;;;;;;;;;;5018940;28;20447;-70
2023/08/05 02:41:15;;;;;;;9.02;2.17;;;;;;;;;;5003715;28;20087;-70
2023/08/05 02:43:41;;;;;;;9.73;2.30;;;;;;;;;;5020826;28;20037;-71
2023/08/05 02:46:07;;;;;;;11.10;2.55;;;;;;;;;;5000201;28;20032;-70
2023/08/05 02:48:34;;;;;;;12.68;2.60;;;;;;;;;;5025462;28;20140;-70
2023/08/05 02:51:00;;;;;;;10.57;2.72;;;;;;;;;;5018573;28;20057;-72
2023/08/05 02:53:27;;;;;;;11.55;2.50;;;;;;;;;;5020878;28;20033;-71
2023/08/05 02:55:53;;;;;;;11.60;2.45;;;;;;;;;;5018103;28;20574;-71
2023/08/05 02:58:20;;;;;;;13.30;2.60;;;;;;;;;;5021163;28;20414;-71
2023/08/05 03:00:46;;;;;;;10.07;2.50;;;;;;;;;;5017465;28;20029;-71
2023/08/05 03:03:13;;;;;;;11.05;2.70;;;;;;;;;;5021064;28;20399;-71
2023/08/05 03:05:40;;;;;;;10.93;2.60;;;;;;;;;;5003528;28;20122;-71
2023/08/05 03:08:06;;;;;;;11.80;2.63;;;;;;;;;;5021723;28;20040;-71
2023/08/05 03:10:32;;;;;;;10.73;2.53;;;;;;;;;;5023874;28;20030;-71
2023/08/05 03:12:59;;;;;;;12.18;2.83;;;;;;;;;;5022273;28;20128;-70
2023/08/05 03:15:28;;;;;;;12.60;2.55;;;;;;;;;;5024130;28;20119;-71
2023/08/05 03:17:54;;;;;;;13.82;2.63;;;;;;;;;;5018230;28;20389;-71
2023/08/05 03:20:23;;;;;;;14.35;2.90;;;;;;;;;;5023288;28;20025;-71
2023/08/05 03:22:50;;;;;;;11.80;2.40;;;;;;;;;;5018300;28;20060;-71
2023/08/05 03:25:16;;;;;;;12.70;2.35;;;;;;;;;;5006952;28;20048;-71
2023/08/05 03:27:42;;;;;;;12.35;2.70;;;;;;;;;;5003843;28;20545;-70
2023/08/05 03:30:08;;;;;;;12.40;2.65;;;;;;;;;;5021393;28;20028;-70
2023/08/05 03:32:34;;;;;;;12.65;2.88;;;;;;;;;;5022256;28;20049;-71
2023/08/05 03:35:00;;;;;;;11.77;2.60;;;;;;;;;;5016238;28;20071;-70
2023/08/05 03:37:27;;;;;;;11.63;2.85;;;;;;;;;;5023959;28;20094;-70
2023/08/05 03:39:53;;;;;;;9.15;2.45;;;;;;;;;;5019151;28;20045;-71
2023/08/05 03:42:19;;;;;;;13.48;2.80;;;;;;;;;;5004595;28;20055;-70
2023/08/05 03:44:45;;;;;;;11.10;2.50;;;;;;;;;;5021328;28;20641;-70
2023/08/05 03:47:12;;;;;;;10.75;2.40;;;;;;;;;;5023707;28;20039;-70
2023/08/05 03:49:39;;;;;;;12.48;2.72;;;;;;;;;;5002071;28;20036;-70
2023/08/05 03:52:05;;;;;;;10.88;2.47;;;;;;;;;;5019800;28;20979;-70
2023/08/05 03:54:32;;;;;;;8.50;2.25;;;;;;;;;;5023616;28;20036;-70
2023/08/05 03:56:59;;;;;;;12.73;2.55;;;;;;;;;;5002459;28;20036;-70
2023/08/05 03:59:25;;;;;;;11.15;2.47;;;;;;;;;;5020916;28;20037;-70
2023/08/05 04:01:52;;;;;;;9.70;2.30;;;;;;;;;;5024046;28;20037;-72
2023/08/05 04:04:18;;;;;;;9.27;2.42;;;;;;;;;;5004429;28;20038;-70
2023/08/05 04:06:45;;;;;;;10.40;2.28;;;;;;;;;;5022224;28;20538;-71
2023/08/05 04:09:12;;;;;;;13.23;2.65;;;;;;;;;;5023769;28;20044;-69
2023/08/05 04:11:38;;;;;;;12.02;2.20;;;;;;;;;;5002768;28;20037;-71
2023/08/05 04:14:04;;;;;;;13.55;2.60;;;;;;;;;;5022441;28;20094;-70
2023/08/05 04:16:30;;;;;;;10.82;2.08;;;;;;;;;;5024838;28;20478;-70
2023/08/05 04:18:58;;;;;;;14.20;2.53;;;;;;;;;;5020443;28;20029;-70
2023/08/05 04:21:28;;;;;;;10.77;2.50;;;;;;;;;;5021036;28;20395;-70
2023/08/05 04:23:58;;;;;;;9.93;2.38;;;;;;;;;;5019457;28;20544;-70
2023/08/05 04:26:24;;;;;;;11.70;2.30;;;;;;;;;;5024105;28;20539;-70
2023/08/05 04:28:50;;;;;;;12.18;2.50;;;;;;;;;;5023000;28;20521;-71
2023/08/05 04:31:16;;;;;;;18.95;3.00;;;;;;;;;;5025872;28;20108;-72
2023/08/05 04:33:43;;;;;;;15.38;2.92;;;;;;;;;;5026270;28;20076;-71
2023/08/05 04:36:09;;;;;;;13.73;2.67;;;;;;;;;;5002257;28;20104;-71
2023/08/05 04:38:35;;;;;;;11.35;2.72;;;;;;;;;;5020164;28;20024;-71
2023/08/05 04:41:01;;;;;;;13.77;2.70;;;;;;;;;;5020584;28;20403;-71
2023/08/05 04:43:27;;;;;;;8.15;2.33;;;;;;;;;;5021220;28;20032;-71
2023/08/05 04:45:54;;;;;;;11.55;2.58;;;;;;;;;;5018274;28;20111;-71
2023/08/05 04:48:20;;;;;;;11.02;2.60;;;;;;;;;;5024303;28;20442;-71
2023/08/05 04:50:47;;;;;;;9.82;2.40;;;;;;;;;;5021043;28;20100;-71
2023/08/05 04:53:15;;;;;;;9.80;2.22;;;;;;;;;;5023250;28;20254;-71
2023/08/05 04:55:41;;;;;;;11.85;2.60;;;;;;;;;;5023934;28;20051;-70
2023/08/05 04:58:08;;;;;;;10.55;2.53;;;;;;;;;;5002795;28;20057;-70
2023/08/05 05:00:34;;;;;;;10.80;2.38;;;;;;;;;;5023370;28;20140;-70
2023/08/05 05:03:00;;;;;;;14.45;2.90;;;;;;;;;;5017878;28;20509;-70
2023/08/05 05:05:27;;;;;;;10.95;2.60;;;;;;;;;;5022340;28;20041;-70
2023/08/05 05:07:53;;;;;;;11.57;2.63;;;;;;;;;;5018645;28;20029;-70
2023/08/05 05:10:19;;;;;;;13.18;2.58;;;;;;;;;;5004796;28;20878;-70
2023/08/05 05:12:45;;;;;;;9.77;2.30;;;;;;;;;;5019948;28;20454;-70
2023/08/05 05:15:11;;;;;;;10.30;2.22;;;;;;;;;;5021247;28;20371;-70
2023/08/05 05:17:37;;;;;;;9.82;2.20;;;;;;;;;;5023241;28;20485;-70
2023/08/05 05:20:04;;;;;;;10.07;2.50;;;;;;;;;;5017705;28;20065;-69
2023/08/05 05:22:31;;;;;;;10.52;2.03;;;;;;;;;;5021032;28;20025;-70
2023/08/05 05:24:57;;;;;;;10.82;2.53;;;;;;;;;;5019354;28;20033;-70
2023/08/05 05:27:23;;;;;;;11.45;2.00;;;;;;;;;;5005045;28;20029;-70
2023/08/05 05:29:49;;;;;;;12.05;2.65;;;;;;;;;;4996838;28;20298;-70
2023/08/05 05:32:15;;;;;;;12.60;2.70;;;;;;;;;;5018957;28;20274;-70
2023/08/05 05:34:42;;;;;;;10.85;2.63;;;;;;;;;;5019696;28;20305;-70
2023/08/05 05:37:08;;;;;;;11.55;2.47;;;;;;;;;;5019919;28;20095;-71
2023/08/05 05:39:34;;;;;;;11.70;2.47;;;;;;;;;;5004344;28;20056;-70
2023/08/05 05:42:00;;;;;;;12.98;2.05;;;;;;;;;;5020848;28;20036;-70
2023/08/05 05:44:29;;;;;;;10.80;2.17;;;;;;;;;;5020543;28;20124;-70
2023/08/05 05:46:56;;;;;;;10.50;2.20;;;;;;;;;;4999675;28;20633;-72
2023/08/05 05:49:22;;;;;;;11.02;2.08;;;;;;;;;;5001129;28;20030;-69
2023/08/05 05:51:48;;;;;;;13.85;2.40;;;;;;;;;;5019880;28;20048;-70
2023/08/05 05:54:15;;;;;;;13.18;2.40;;;;;;;;;;5002921;28;20021;-72
2023/08/05 05:56:41;;;;;;;13.80;2.63;;;;;;;;;;5003353;28;20037;-72
2023/08/05 05:59:07;;;;;;;9.80;1.80;;;;;;;;;;5021845;28;20084;-70
2023/08/05 06:01:34;;;;;;;10.27;2.50;;;;;;;;;;5023125;28;20671;-70
2023/08/05 06:04:02;;;;;;;13.57;2.50;;;;;;;;;;5018540;28;20073;-70
2023/08/05 06:06:28;;;;;;;12.07;2.38;;;;;;;;;;5019730;28;20484;-71
2023/08/05 06:08:55;;;;;;;12.10;2.42;;;;;;;;;;5018988;28;20044;-71
2023/08/05 06:11:21;;;;;;;12.88;2.60;;;;;;;;;;5003271;28;20024;-70
2023/08/05 06:13:47;;;;;;;10.95;2.25;;;;;;;;;;5003771;28;20368;-71
2023/08/05 06:16:13;;;;;;;12.50;2.90;;;;;;;;;;5018639;28;20021;-71
2023/08/05 06:18:39;;;;;;;11.55;2.38;;;;;;;;;;5019125;28;20687;-71
2023/08/05 06:21:05;;;;;;;11.48;2.40;;;;;;;;;;5017556;28;20460;-70
2023/08/05 06:23:31;;;;;;;12.93;2.53;;;;;;;;;;5019975;28;20094;-70
2023/08/05 06:25:58;;;;;;;13.65;2.58;;;;;;;;;;5018549;28;20099;-70
2023/08/05 06:28:24;;;;;;;10.75;2.47;;;;;;;;;;5021826;28;20083;-70
2023/08/05 06:30:50;;;;;;;10.35;2.35;;;;;;;;;;5017712;28;20025;-70
2023/08/05 06:33:16;;;;;;;9.63;2.10;;;;;;;;;;4999386;28;20038;-70
2023/08/05 06:35:42;;;;;;;11.20;2.25;;;;;;;;;;5022447;28;20329;-71
2023/08/05 06:38:08;;;;;;;12.93;2.40;;;;;;;;;;5024733;28;20046;-70
2023/08/05 06:40:34;;;;;;;9.07;1.80;;;;;;;;;;5009205;28;20490;-70
2023/08/05 06:43:01;;;;;;;13.13;2.08;;;;;;;;;;5022063;28;20048;-72
2023/08/05 06:45:27;;;;;;;11.02;2.00;;;;;;;;;;5023624;28;20082;-72
2023/08/05 06:47:53;;;;;;;6.32;1.60;;;;;;;;;;5002056;28;20033;-72
2023/08/05 06:50:19;;;;;;;10.00;2.08;;;;;;;;;;5005964;28;20083;-72
2023/08/05 06:52:45;;;;;;;10.40;1.83;;;;;;;;;;5024469;28;20041;-72
2023/08/05 06:55:12;;;;;;;9.77;2.00;;;;;;;;;;5025489;28;20032;-72
2023/08/05 06:57:38;;;;;;;13.20;2.03;;;;;;;;;;5018049;28;20672;-71
2023/08/05 07:00:05;;;;;;;11.90;2.40;;;;;;;;;;5019498;28;20636;-71
2023/08/05 07:02:31;;;;;;;8.75;2.20;;;;;;;;;;5004100;28;20173;-71
2023/08/05 07:04:57;;;;;;;12.23;2.35;;;;;;;;;;5026443;28;20037;-71
2023/08/05 07:07:23;;;;;;;8.73;2.00;;;;;;;;;;5023546;28;20435;-71
2023/08/05 07:09:50;;;;;;;12.68;2.70;;;;;;;;;;5020966;28;20067;-71
2023/08/05 07:12:16;;;;;;;10.18;2.20;;;;;;;;;;5026750;28;20038;-71
2023/08/05 07:14:44;;;;;;;8.45;2.08;;;;;;;;;;5024096;28;20068;-71
2023/08/05 07:17:11;;;;;;;10.60;2.00;;;;;;;;;;5024435;28;20052;-71
2023/08/05 07:19:37;;;;;;;11.13;2.50;;;;;;;;;;5023375;28;20021;-71
2023/08/05 07:22:04;;;;;;;10.27;2.60;;;;;;;;;;5021756;28;20064;-71
2023/08/05 07:24:30;;;;;;;10.52;2.63;;;;;;;;;;5024646;28;20550;-71
2023/08/05 07:26:56;;;;;;;10.73;2.42;;;;;;;;;;5001754;28;20601;-71
2023/08/05 07:29:22;;;;;;;15.55;3.20;;;;;;;;;;5022500;28;20116;-71
2023/08/05 07:31:48;;;;;;;11.77;3.10;;;;;;;;;;5006658;28;20025;-71
2023/08/05 07:34:16;;;;;;;14.73;2.55;;;;;;;;;;5017173;28;20302;-71
2023/08/05 07:36:43;;;;;;;10.68;3.17;;;;;;;;;;5022580;28;20242;-70
2023/08/05 07:39:10;;;;;;;12.23;2.53;;;;;;;;;;5017304;28;20110;-70
2023/08/05 07:41:36;;;;;;;12.48;3.03;;;;;;;;;;5017356;28;20472;-70
2023/08/05 07:44:03;;;;;;;13.00;3.00;;;;;;;;;;5017485;28;20106;-71
2023/08/05 07:46:31;;;;;;;11.57;3.00;;;;;;;;;;5017351;28;20660;-73
2023/08/05 07:48:59;;;;;;;12.90;2.88;;;;;;;;;;4995165;28;20038;-70
2023/08/05 07:51:26;;;;;;;12.98;2.95;;;;;;;;;;4999814;28;20329;-70
2023/08/05 07:53:53;;;;;;;12.30;3.05;;;;;;;;;;5017715;28;20120;-71
2023/08/05 07:56:20;;;;;;;16.35;3.13;;;;;;;;;;5021150;28;20028;-70
2023/08/05 07:58:46;;;;;;;10.77;2.80;;;;;;;;;;4998262;28;20042;-71
2023/08/05 08:01:13;;;;;;;10.98;2.85;;;;;;;;;;5020607;28;20884;-71
2023/08/05 08:03:43;;;;;;;13.73;2.92;;;;;;;;;;5013251;28;20483;-71
2023/08/05 08:06:09;;;;;;;11.07;3.15;;;;;;;;;;5018736;28;20036;-70
2023/08/05 08:08:35;;;;;;;11.88;2.88;;;;;;;;;;5018872;28;20032;-72
2023/08/05 08:11:01;;;;;;;13.40;3.10;;;;;;;;;;5014985;28;20033;-72
2023/08/05 08:13:28;;;;;;;12.95;2.80;;;;;;;;;;5015138;28;20044;-72
2023/08/05 08:15:54;;;;;;;10.95;2.80;;;;;;;;;;5016115;28;20037;-72
2023/08/05 08:18:20;;;;;;;14.48;3.35;;;;;;;;;;4998294;28;20037;-72
2023/08/05 08:20:52;;;;;;;12.05;3.05;;;;;;;;;;5015296;28;20188;-73
2023/08/05 08:23:19;;;;;;;12.20;2.47;;;;;;;;;;5018248;28;20033;-72
2023/08/05 08:25:45;;;;;;;10.25;2.75;;;;;;;;;;5019664;28;20037;-73
2023/08/05 08:28:11;;;;;;;11.23;2.80;;;;;;;;;;5021199;28;20526;-72
2023/08/05 08:30:38;;;;;;;9.40;2.70;;;;;;;;;;5019039;28;20490;-73
2023/08/05 08:33:04;;;;;;;10.38;2.50;;;;;;;;;;4998430;28;20144;-72
2023/08/05 08:35:30;;;;;;;9.82;2.75;;;;;;;;;;5019730;28;20140;-73
2023/08/05 08:37:57;;;;;;;11.45;2.90;;;;;;;;;;5013883;28;20037;-72
2023/08/05 08:40:23;;;;;;;11.32;2.67;;;;;;;;;;5020522;28;20036;-71
2023/08/05 08:42:50;;;;;;;9.23;2.25;;;;;;;;;;5012594;28;20447;-71
2023/08/05 08:45:18;;;;;;;11.70;2.63;;;;;;;;;;5013700;28;20221;-72
2023/08/05 08:47:46;;;;;;;9.60;2.60;;;;;;;;;;5014014;28;20264;-73
2023/08/05 08:50:12;;;;;;;12.15;2.70;;;;;;;;;;5001083;28;20031;-73
2023/08/05 08:52:41;;;;;;;11.00;2.90;;;;;;;;;;5015842;28;20029;-71
2023/08/05 08:55:08;;;;;;;9.65;2.58;;;;;;;;;;4994017;28;20176;-73
2023/08/05 08:57:35;;;;;;;10.90;2.63;;;;;;;;;;5019950;28;20324;-72
2023/08/05 09:00:01;;;;;;;15.75;3.17;;;;;;;;;;4994235;28;20099;-72
2023/08/05 09:02:28;;;;;;;9.73;2.38;;;;;;;;;;5013861;28;20112;-72
2023/08/05 09:04:54;;;;;;;12.65;2.80;;;;;;;;;;5015030;28;20063;-73
2023/08/05 09:07:22;;;;;;;10.73;2.75;;;;;;;;;;5014206;28;20044;-73
2023/08/05 09:09:48;;;;;;;12.65;2.53;;;;;;;;;;4992079;28;20439;-72
2023/08/05 09:12:15;;;;;;;11.80;2.90;;;;;;;;;;5017347;28;20091;-73
2023/08/05 09:14:41;;;;;;;15.13;2.72;;;;;;;;;;5019518;28;20115;-72
2023/08/05 09:17:07;;;;;;;9.85;2.40;;;;;;;;;;5014443;28;21122;-72
2023/08/05 09:19:33;;;;;;;11.63;3.22;;;;;;;;;;5015083;28;20485;-72
2023/08/05 09:22:06;;;;;;;11.75;2.78;;;;;;;;;;5013761;28;20461;-73
2023/08/05 09:24:32;;;;;;;13.10;2.78;;;;;;;;;;5015623;28;20132;-73
2023/08/05 09:26:59;;;;;;;11.00;2.58;;;;;;;;;;5016521;28;20028;-72
2023/08/05 09:29:26;;;;;;;10.60;2.60;;;;;;;;;;5000269;28;20823;-71
2023/08/05 09:31:59;;;;;;;11.23;2.40;;;;;;;;;;5015055;28;20037;-71
2023/08/05 09:34:35;;;;;;;10.93;2.78;;;;;;;;;;4998397;28;20053;-71
2023/08/05 09:37:02;;;;;;;9.98;2.67;;;;;;;;;;5008949;28;20039;-73
2023/08/05 09:39:43;;;;;;;11.93;2.65;;;;;;;;;;5011369;28;20038;-71
2023/08/05 09:42:18;;;;;;;10.82;2.30;;;;;;;;;;4996215;28;20040;-72
2023/08/05 09:44:45;;;;;;;11.80;2.60;;;;;;;;;;5015734;28;20111;-72
2023/08/05 09:47:14;;;;;;;9.38;2.45;;;;;;;;;;4994878;28;20102;-72
2023/08/05 09:49:42;;;;;;;11.43;2.97;;;;;;;;;;5016496;28;20053;-71
2023/08/05 09:52:09;;;;;;;10.60;2.65;;;;;;;;;;5015327;28;20025;-71
2023/08/05 09:54:36;;;;;;;12.52;2.67;;;;;;;;;;5018387;28;21391;-71
2023/08/05 09:57:03;;;;;;;10.38;2.65;;;;;;;;;;4994934;28;20346;-72
2023/08/05 09:59:30;;;;;;;12.57;2.88;;;;;;;;;;5017979;28;20029;-72
2023/08/05 10:01:56;;;;;;;12.88;2.80;;;;;;;;;;5016533;28;20067;-72
2023/08/05 10:04:24;;;;;;;11.40;2.88;;;;;;;;;;5015072;28;20456;-72
2023/08/05 10:06:51;;;;;;;10.18;2.40;;;;;;;;;;5014886;28;20358;-73
2023/08/05 10:09:17;;;;;;;10.25;2.30;;;;;;;;;;5019627;28;20987;-73
2023/08/05 10:11:44;;;;;;;9.80;2.63;;;;;;;;;;5000276;28;20104;-74
2023/08/05 10:14:10;;;;;;;10.68;2.50;;;;;;;;;;5013767;28;20028;-74
2023/08/05 10:16:38;;;;;;;9.45;2.53;;;;;;;;;;5016061;28;20544;-72
2023/08/05 10:19:04;;;;;;;10.27;2.40;;;;;;;;;;5008811;28;20407;-76
2023/08/05 10:21:44;;;;;;;9.98;2.28;;;;;;;;;;5005703;28;20489;-76
2023/08/05 10:24:11;;;;;;;10.60;2.35;;;;;;;;;;4998625;28;20040;-72
2023/08/05 10:26:46;;;;;;;9.38;2.30;;;;;;;;;;4999578;28;20040;-71
2023/08/05 10:29:25;;;;;;;9.98;2.55;;;;;;;;;;5015364;28;20255;-72
2023/08/05 10:31:51;;;;;;;13.88;2.33;;;;;;;;;;4995931;28;20582;-72
2023/08/05 10:34:18;;;;;;;10.98;2.30;;;;;;;;;;4976816;28;20266;-71
2023/08/05 10:36:45;;;;;;;9.63;2.50;;;;;;;;;;4976295;28;20597;-72
2023/08/05 10:39:43;;;;;;;10.32;2.50;;;;;;;;;;4980984;28;20022;-73
2023/08/05 10:42:28;;;;;;;7.57;1.90;;;;;;;;;;4974737;28;20652;-73
2023/08/05 10:44:55;;;;;;;8.77;2.22;;;;;;;;;;4972503;28;20557;-73
2023/08/05 10:47:24;;;;;;;10.40;2.53;;;;;;;;;;4974900;28;20463;-72
2023/08/05 10:49:57;;;;;;;10.10;1.98;;;;;;;;;;4972504;28;20030;-72
2023/08/05 10:52:24;;;;;;;12.77;2.33;;;;;;;;;;4976688;28;20034;-72
2023/08/05 10:54:50;;;;;;;10.90;1.85;;;;;;;;;;4971852;28;20084;-73
2023/08/05 10:57:29;;;;;;;9.73;2.25;;;;;;;;;;4976330;28;20038;-72
2023/08/05 10:59:59;;;;;;;9.23;2.20;;;;;;;;;;4972943;28;20030;-72
2023/08/05 11:02:26;;;;;;;8.75;1.95;;;;;;;;;;4972868;28;20533;-72
2023/08/05 11:04:52;;;;;;;8.20;1.95;;;;;;;;;;4967383;28;20030;-72
2023/08/05 11:07:18;;;;;;;9.60;2.22;;;;;;;;;;4976604;28;20499;-72
2023/08/05 11:09:46;;;;;;;10.15;2.20;;;;;;;;;;4973656;28;20027;-73
2023/08/05 11:12:13;;;;;;;9.23;2.20;;;;;;;;;;4974747;28;20033;-72
2023/08/05 11:14:39;;;;;;;12.45;2.55;;;;;;;;;;4973912;28;20545;-72
2023/08/05 11:17:08;;;;;;;9.98;2.15;;;;;;;;;;4974916;28;20429;-73
2023/08/05 11:19:53;;;;;;;7.88;2.00;;;;;;;;;;4976081;28;20484;-73
2023/08/05 11:22:29;;;;;;;8.18;1.90;;;;;;;;;;4975931;28;20036;-73
2023/08/05 11:25:02;;;;;;;11.23;2.33;;;;;;;;;;4976116;28;20530;-73
2023/08/05 11:27:32;;;;;;;9.85;2.03;;;;;;;;;;4994626;28;20726;-73
2023/08/05 11:29:58;;;;;;;12.15;1.98;;;;;;;;;;4975976;28;20050;-73
2023/08/05 11:32:25;;;;;;;7.80;2.10;;;;;;;;;;4981510;28;20595;-73
2023/08/05 11:35:00;;;;;;;13.13;2.38;;;;;;;;;;5000751;28;20281;-73
2023/08/05 11:37:26;;;;;;;5.93;1.60;;;;;;;;;;5019312;28;20029;-73
2023/08/05 11:40:00;;;;;;;8.55;2.13;;;;;;;;;;5019078;28;20381;-73
2023/08/05 11:42:26;;;;;;;9.40;1.88;;;;;;;;;;5018548;28;20061;-72
2023/08/05 11:44:52;;;;;;;7.35;1.90;;;;;;;;;;5014887;28;20262;-72
2023/08/05 11:47:19;;;;;;;9.18;2.00;;;;;;;;;;5017992;28;20094;-73
2023/08/05 11:49:54;;;;;;;8.27;1.90;;;;;;;;;;5019947;28;20525;-75
2023/08/05 11:52:21;;;;;;;9.25;2.05;;;;;;;;;;5004610;28;20365;-73
2023/08/05 11:55:00;;;;;;;6.90;1.85;;;;;;;;;;5019473;28;20033;-73
2023/08/05 11:57:27;;;;;;;9.18;1.90;;;;;;;;;;5022255;28;20063;-74
2023/08/05 11:59:56;;;;;;;8.00;1.80;;;;;;;;;;5015808;28;20510;-74
2023/08/05 12:02:24;;;;;;;8.98;2.05;;;;;;;;;;5017728;28;20033;-71
2023/08/05 12:04:59;;;;;;;8.52;2.38;;;;;;;;;;5016622;28;20068;-74
2023/08/05 12:07:25;;;;;;;;;;;;;;;;;;4999521;28;20067;-74
2023/08/05 12:10:08;;;;;;;8.45;1.90;;;;;;;;;;5017952;28;20027;-73
2023/08/05 12:12:34;;;;;;;6.50;1.50;;;;;;;;;;5002042;28;20784;-73
2023/08/05 12:15:17;;;;;;;6.68;1.80;;;;;;;;;;5016482;28;20032;-75
2023/08/05 12:17:48;;;;;;;7.55;1.60;;;;;;;;;;5001928;28;20313;-72
2023/08/05 12:20:19;;;;;;;8.63;1.63;;;;;;;;;;5019106;28;20025;-74
2023/08/05 12:22:46;;;;;;;6.85;1.70;;;;;;;;;;5015340;28;20114;-71
2023/08/05 12:25:12;;;;;;;6.50;1.70;;;;;;;;;;5016106;28;20059;-72
2023/08/05 12:27:39;;;;;;;5.60;1.38;;;;;;;;;;5001632;28;20031;-72
2023/08/05 12:30:09;;;;;;;7.18;1.50;;;;;;;;;;5016832;28;20247;-71
2023/08/05 12:32:35;;;;;;;8.50;1.50;;;;;;;;;;5018784;28;21002;-72
2023/08/05 12:35:05;;;;;;;7.20;1.90;;;;;;;;;;5011862;28;20032;-73
2023/08/05 12:37:36;;;;;;;8.63;1.95;;;;;;;;;;5015794;28;20023;-72
2023/08/05 12:40:05;;;;;;;6.53;1.67;;;;;;;;;;5015542;28;20140;-71
2023/08/05 12:42:32;;;;;;;5.15;1.52;;;;;;;;;;5017291;28;20486;-72
2023/08/05 12:45:00;;;;;;;6.95;1.40;;;;;;;;;;4998023;28;20029;-72
2023/08/05 12:47:27;;;;;;;6.28;1.30;;;;;;;;;;5017187;28;20056;-72
2023/08/05 12:49:54;;;;;;;9.80;1.80;;;;;;;;;;4996963;28;20028;-72
2023/08/05 12:52:20;;;;;;;4.85;1.48;;;;;;;;;;5017717;28;20021;-72
2023/08/05 12:54:46;;;;;;;6.45;1.85;;;;;;;;;;5012146;28;20558;-72
2023/08/05 12:57:12;;;;;;;7.10;1.70;;;;;;;;;;5014980;28;20051;-72
2023/08/05 12:59:38;;;;;;;11.00;2.70;;;;;;;;;;5017959;28;20065;-72
2023/08/05 13:02:05;;;;;;;12.52;2.90;;;;;;;;;;5015359;28;20025;-73
2023/08/05 13:04:31;;;;;;;9.13;2.58;;;;;;;;;;5016440;28;20577;-74
2023/08/05 13:06:57;;;;;;;9.25;2.60;;;;;;;;;;5013411;28;20035;-73
2023/08/05 13:09:23;;;;;;;11.43;2.90;;;;;;;;;;4998750;28;20029;-73
2023/08/05 13:11:49;;;;;;;8.93;2.78;;;;;;;;;;4999743;28;20029;-73
2023/08/05 13:14:15;;;;;;;9.93;2.70;;;;;;;;;;5018487;28;20028;-73
2023/08/05 13:16:42;;;;;;;9.85;2.70;;;;;;;;;;4996627;28;20660;-74
2023/08/05 13:19:08;;;;;;;10.15;2.80;;;;;;;;;;5014378;28;21811;-73
2023/08/05 13:21:34;;;;;;;7.13;2.00;;;;;;;;;;5018382;28;20871;-73
2023/08/05 13:24:04;;;;;;;5.13;1.20;;;;;;;;;;4999879;28;20073;-73
2023/08/05 13:26:30;;;;;;;5.70;1.45;;;;;;;;;;5022557;28;20041;-73
2023/08/05 13:28:57;;;;;;;5.75;1.40;;;;;;;;;;5020858;28;20032;-74
2023/08/05 13:31:23;;;;;;;5.22;1.67;;;;;;;;;;5017513;28;20140;-73
2023/08/05 13:33:50;;;;;;;5.78;1.30;;;;;;;;;;5016675;28;20156;-74
2023/08/05 13:36:16;;;;;;;5.57;1.35;;;;;;;;;;5002462;28;20056;-74
2023/08/05 13:38:42;;;;;;;7.22;1.45;;;;;;;;;;5021488;28;20419;-74
2023/08/05 13:41:09;;;;;;;6.50;1.25;;;;;;;;;;5016602;28;20110;-74
2023/08/05 13:43:35;;;;;;;4.88;1.35;;;;;;;;;;5017891;28;20525;-74
2023/08/05 13:46:02;;;;;;;6.32;1.50;;;;;;;;;;5017650;28;20616;-74
2023/08/05 13:48:32;;;;;;;5.93;1.30;;;;;;;;;;5020910;28;20491;-74
2023/08/05 13:51:05;;;;;;;5.93;1.40;;;;;;;;;;5014543;28;20137;-72
2023/08/05 13:53:31;;;;;;;4.78;1.30;;;;;;;;;;5019671;28;20025;-72
2023/08/05 13:55:58;;;;;;;5.30;1.38;;;;;;;;;;5019718;28;20071;-72
2023/08/05 13:58:24;;;;;;;5.70;1.33;;;;;;;;;;5019325;28;20068;-72
2023/08/05 14:00:51;;;;;;;6.10;1.40;;;;;;;;;;5017957;28;20040;-74
2023/08/05 14:03:17;;;;;;;4.88;1.42;;;;;;;;;;5015539;28;20060;-73
2023/08/05 14:05:43;;;;;;;5.28;1.40;;;;;;;;;;5024069;28;20482;-73
2023/08/05 14:08:09;;;;;;;5.75;1.40;;;;;;;;;;4994701;28;20661;-73
2023/08/05 14:10:35;;;;;;;6.18;1.60;;;;;;;;;;5004086;28;20427;-72
2023/08/05 14:13:02;;;;;;;5.53;1.30;;;;;;;;;;5016129;28;20049;-72
2023/08/05 14:15:28;;;;;;;4.80;1.17;;;;;;;;;;5002943;28;20148;-72
2023/08/05 14:17:54;;;;;;;4.97;1.35;;;;;;;;;;5014559;28;20541;-72
2023/08/05 14:20:21;;;;;;;6.95;1.38;;;;;;;;;;5019877;28;20082;-72
2023/08/05 14:22:47;;;;;;;4.65;1.35;;;;;;;;;;5018652;28;20118;-72
2023/08/05 14:25:13;;;;;;;3.95;1.13;;;;;;;;;;5019367;28;20029;-74
2023/08/05 14:27:39;;;;;;;5.50;1.40;;;;;;;;;;5017332;28;20162;-72
2023/08/05 14:30:06;;;;;;;8.05;1.80;;;;;;;;;;5017824;28;20110;-73
2023/08/05 14:32:32;;;;;;;4.90;1.42;;;;;;;;;;5016652;28;20033;-74
2023/08/05 14:34:58;;;;;;;4.47;1.30;;;;;;;;;;5016188;28;20727;-73